Vera, Illinois
Current Conditions -  °F | °C
As of 5:35 PM on Thursday 18 Dec 2014 (Local Time) from K1H2 Reporting Station
Overcast Overcast  
Wind Chill: 31°   Ceiling: 4800
Heat Index: 31°   Visibility: 10mi
Dew Point: 21°   Wind: 3mph
Humidity: 67%   Direction: 350°N
Pressure: 30.27"   Gusts: NA
Location:  39.1031°N, 89.1042°W
Report Text: K1H2 182335Z AUTO 35003KT 10SM OVC048 00/M06 A3027 RMK AO2 T10051059
Loading
Personal Weather Stations






























Interactive Weather Map New forecast layout! Learn more

10-Day Weather Forecast

Advertisements
Track Severe Weather on mobile